VLG74XH LEMG-LEBB
Flight info
| Callsign | VLG74XH |
|---|---|
| Flight time | N/A |
| Altitude | 34000 |
| Route | BLN N865 VTB N867 DGO |
| Aircraft | A320/M-SDE3FGHIRWY/LB1 |
Departure
| Time | 2026-05-05 16:15 |
|---|---|
| Airport | Málaga-Costa del Sol Airport (LEMG) |
Arrival
| Time | N/A |
|---|---|
| Airport | Bilbao Airport (LEBB) |
| Time | Latitude | Longitude | Altitude | Speed | Heading |
|---|---|---|---|---|---|
| 2026-05-05 15:41 | 36.67799 | -4.49654 | 42 ft | 0 kts | 131° |
| 2026-05-05 15:47 | 36.67799 | -4.49655 | 42 ft | 0 kts | 131° |
| 2026-05-05 16:04 | 36.67810 | -4.49671 | 41 ft | 4 kts | 132° |
| 2026-05-05 16:04 | 36.67828 | -4.49695 | 39 ft | 4 kts | 134° |
| 2026-05-05 16:04 | 36.67848 | -4.49719 | 41 ft | 4 kts | 139° |
| 2026-05-05 16:04 | 36.67869 | -4.49738 | 42 ft | 4 kts | 158° |
| 2026-05-05 16:05 | 36.67891 | -4.49742 | 42 ft | 3 kts | 194° |
| 2026-05-05 16:05 | 36.67909 | -4.49730 | 37 ft | 1 kts | 221° |
| 2026-05-05 16:07 | 36.67908 | -4.49731 | 37 ft | 1 kts | 221° |
| 2026-05-05 16:07 | 36.67898 | -4.49742 | 41 ft | 3 kts | 221° |
| 2026-05-05 16:08 | 36.67876 | -4.49766 | 41 ft | 5 kts | 221° |
| 2026-05-05 16:08 | 36.67842 | -4.49803 | 42 ft | 7 kts | 221° |
| 2026-05-05 16:08 | 36.67778 | -4.49855 | 42 ft | 9 kts | 181° |
| 2026-05-05 16:08 | 36.67746 | -4.49862 | 42 ft | 7 kts | 236° |
| 2026-05-05 16:09 | 36.67704 | -4.49889 | 43 ft | 8 kts | 175° |
| 2026-05-05 16:09 | 36.67657 | -4.49847 | 43 ft | 11 kts | 132° |
| 2026-05-05 16:09 | 36.67594 | -4.49758 | 43 ft | 15 kts | 131° |
| 2026-05-05 16:09 | 36.67520 | -4.49656 | 43 ft | 17 kts | 132° |
| 2026-05-05 16:10 | 36.67436 | -4.49536 | 42 ft | 19 kts | 131° |
| 2026-05-05 16:10 | 36.67344 | -4.49407 | 43 ft | 21 kts | 131° |
| 2026-05-05 16:10 | 36.67243 | -4.49264 | 42 ft | 22 kts | 131° |
| 2026-05-05 16:10 | 36.67147 | -4.49130 | 41 ft | 22 kts | 132° |
| 2026-05-05 16:11 | 36.67103 | -4.49070 | 42 ft | 23 kts | 132° |
| 2026-05-05 16:11 | 36.67068 | -4.49023 | 42 ft | 23 kts | 132° |
| 2026-05-05 16:12 | 36.66997 | -4.48921 | 42 ft | 25 kts | 130° |
| 2026-05-05 16:12 | 36.66815 | -4.48666 | 36 ft | 16 kts | 131° |
| 2026-05-05 16:13 | 36.66620 | -4.48512 | 36 ft | 0 kts | 219° |
| 2026-05-05 16:14 | 36.66609 | -4.48524 | 37 ft | 10 kts | 219° |
| 2026-05-05 16:14 | 36.66619 | -4.48694 | 40 ft | 17 kts | 310° |
| 2026-05-05 16:15 | 36.67364 | -4.49734 | 48 ft | 136 kts | 312° |
| 2026-05-05 16:15 | 36.68709 | -4.51675 | 1007 ft | 151 kts | 306° |
| 2026-05-05 16:16 | 36.70164 | -4.53865 | 1930 ft | 181 kts | 306° |
| 2026-05-05 16:16 | 36.71927 | -4.56539 | 3213 ft | 202 kts | 308° |
| 2026-05-05 16:17 | 36.74066 | -4.58815 | 4772 ft | 214 kts | 341° |
| 2026-05-05 16:17 | 36.75503 | -4.59339 | 5556 ft | 218 kts | 342° |
| 2026-05-05 16:18 | 36.78466 | -4.60406 | 7065 ft | 226 kts | 340° |
| 2026-05-05 16:18 | 36.79995 | -4.60903 | 7855 ft | 230 kts | 349° |
| 2026-05-05 16:18 | 36.83167 | -4.59778 | 9081 ft | 266 kts | 37° |
| 2026-05-05 16:19 | 36.84573 | -4.58204 | 9796 ft | 275 kts | 39° |
| 2026-05-05 16:19 | 36.86013 | -4.56595 | 10486 ft | 281 kts | 38° |
| 2026-05-05 16:19 | 36.89002 | -4.53296 | 11950 ft | 290 kts | 38° |
| 2026-05-05 16:20 | 36.92056 | -4.49934 | 13444 ft | 298 kts | 38° |
| 2026-05-05 16:20 | 36.95210 | -4.46462 | 14779 ft | 306 kts | 38° |
| 2026-05-05 16:21 | 36.98465 | -4.42982 | 16074 ft | 310 kts | 30° |
| 2026-05-05 16:22 | 37.04468 | -4.38220 | 16584 ft | 369 kts | 28° |
| 2026-05-05 16:22 | 37.08892 | -4.34718 | 17604 ft | 381 kts | 29° |
| 2026-05-05 16:23 | 37.13412 | -4.31108 | 18741 ft | 388 kts | 29° |
| 2026-05-05 16:23 | 37.15702 | -4.29278 | 19279 ft | 392 kts | 28° |
| 2026-05-05 16:23 | 37.20345 | -4.25576 | 20378 ft | 399 kts | 28° |
| 2026-05-05 16:24 | 37.22666 | -4.23725 | 20877 ft | 402 kts | 28° |
| 2026-05-05 16:24 | 37.25038 | -4.21832 | 21366 ft | 406 kts | 28° |
| 2026-05-05 16:24 | 37.29849 | -4.17987 | 22317 ft | 413 kts | 28° |
| 2026-05-05 16:25 | 37.32282 | -4.16034 | 22817 ft | 416 kts | 28° |
| 2026-05-05 16:25 | 37.37199 | -4.12083 | 23747 ft | 423 kts | 28° |
| 2026-05-05 16:25 | 37.39691 | -4.10084 | 24126 ft | 426 kts | 28° |
| 2026-05-05 16:26 | 37.44741 | -4.06030 | 24880 ft | 434 kts | 28° |
| 2026-05-05 16:26 | 37.49873 | -4.01893 | 25617 ft | 441 kts | 28° |
| 2026-05-05 16:27 | 37.52470 | -3.99799 | 25993 ft | 445 kts | 28° |
| 2026-05-05 16:27 | 37.55052 | -3.97719 | 26363 ft | 448 kts | 28° |
| 2026-05-05 16:27 | 37.57689 | -3.95591 | 26724 ft | 451 kts | 28° |
| 2026-05-05 16:27 | 37.60337 | -3.93450 | 27081 ft | 455 kts | 28° |
| 2026-05-05 16:28 | 37.63013 | -3.91283 | 27442 ft | 458 kts | 28° |
| 2026-05-05 16:28 | 37.65706 | -3.89099 | 27823 ft | 462 kts | 27° |
| 2026-05-05 16:28 | 37.68416 | -3.86905 | 28227 ft | 463 kts | 27° |
| 2026-05-05 16:28 | 37.71140 | -3.84701 | 28593 ft | 466 kts | 26° |
| 2026-05-05 16:29 | 37.73883 | -3.82482 | 28981 ft | 469 kts | 27° |
| 2026-05-05 16:29 | 37.76642 | -3.80242 | 29337 ft | 474 kts | 27° |
| 2026-05-05 16:29 | 37.79421 | -3.77979 | 29613 ft | 478 kts | 27° |
| 2026-05-05 16:29 | 37.82254 | -3.75754 | 29942 ft | 478 kts | 22° |
| 2026-05-05 16:30 | 37.85256 | -3.73995 | 30229 ft | 473 kts | 13° |
| 2026-05-05 16:30 | 37.88381 | -3.72734 | 30538 ft | 471 kts | 9° |
| 2026-05-05 16:30 | 37.91534 | -3.71546 | 30887 ft | 473 kts | 8° |
| 2026-05-05 16:30 | 37.94696 | -3.70348 | 31230 ft | 475 kts | 8° |
| 2026-05-05 16:31 | 37.97856 | -3.69143 | 31678 ft | 473 kts | 8° |
| 2026-05-05 16:31 | 38.01001 | -3.67939 | 32117 ft | 473 kts | 9° |
| 2026-05-05 16:31 | 38.04153 | -3.66729 | 32534 ft | 473 kts | 9° |
| 2026-05-05 16:31 | 38.07304 | -3.65520 | 32956 ft | 473 kts | 9° |
| 2026-05-05 16:32 | 38.10413 | -3.64329 | 33389 ft | 473 kts | 9° |
| 2026-05-05 16:32 | 38.13566 | -3.63127 | 33838 ft | 472 kts | 7° |
| 2026-05-05 16:32 | 38.16741 | -3.62301 | 33934 ft | 457 kts | 357° |
| 2026-05-05 16:32 | 38.19875 | -3.61972 | 33941 ft | 450 kts | 355° |
| 2026-05-05 16:33 | 38.26102 | -3.61405 | 33945 ft | 448 kts | 354° |
| 2026-05-05 16:33 | 38.32319 | -3.60833 | 33945 ft | 448 kts | 355° |
| 2026-05-05 16:34 | 38.38494 | -3.60238 | 33947 ft | 448 kts | 355° |
| 2026-05-05 16:34 | 38.44717 | -3.59628 | 33958 ft | 449 kts | 355° |
| 2026-05-05 16:35 | 38.50947 | -3.59016 | 33960 ft | 449 kts | 355° |
| 2026-05-05 16:35 | 38.57186 | -3.58411 | 33965 ft | 449 kts | 355° |
| 2026-05-05 16:36 | 38.63410 | -3.57804 | 33979 ft | 446 kts | 355° |
| 2026-05-05 16:36 | 38.69579 | -3.57193 | 33976 ft | 444 kts | 355° |
| 2026-05-05 16:37 | 38.75742 | -3.56597 | 33966 ft | 444 kts | 355° |
| 2026-05-05 16:37 | 38.81902 | -3.55996 | 33962 ft | 444 kts | 355° |
| 2026-05-05 16:38 | 38.88006 | -3.55390 | 33963 ft | 440 kts | 354° |
| 2026-05-05 16:38 | 38.94100 | -3.54787 | 33953 ft | 439 kts | 354° |
| 2026-05-05 16:39 | 39.00190 | -3.54192 | 33950 ft | 439 kts | 354° |
| 2026-05-05 16:39 | 39.06273 | -3.53597 | 33951 ft | 439 kts | 354° |
| 2026-05-05 16:40 | 39.12367 | -3.52987 | 33972 ft | 439 kts | 354° |
| 2026-05-05 16:40 | 39.18462 | -3.52382 | 33970 ft | 439 kts | 354° |
| 2026-05-05 16:41 | 39.24513 | -3.51785 | 33954 ft | 439 kts | 354° |
| 2026-05-05 16:41 | 39.30605 | -3.51174 | 34000 ft | 439 kts | 355° |
| 2026-05-05 16:42 | 39.36680 | -3.50551 | 33952 ft | 436 kts | 355° |
| 2026-05-05 16:42 | 39.42736 | -3.49943 | 33950 ft | 436 kts | 355° |
| 2026-05-05 16:43 | 39.48787 | -3.49341 | 33951 ft | 436 kts | 355° |
| 2026-05-05 16:43 | 39.54807 | -3.48743 | 33972 ft | 436 kts | 355° |
| 2026-05-05 16:44 | 39.60851 | -3.48128 | 33958 ft | 434 kts | 355° |
| 2026-05-05 16:44 | 39.66869 | -3.47525 | 33960 ft | 434 kts | 355° |
| 2026-05-05 16:45 | 39.72895 | -3.46920 | 33959 ft | 434 kts | 355° |
| 2026-05-05 16:45 | 39.78926 | -3.46291 | 33981 ft | 436 kts | 357° |
| 2026-05-05 16:46 | 39.84926 | -3.45249 | 33982 ft | 439 kts | 0° |
| 2026-05-05 16:46 | 39.90960 | -3.43907 | 33977 ft | 440 kts | 1° |
| 2026-05-05 16:47 | 39.96990 | -3.42598 | 33977 ft | 438 kts | 360° |
| 2026-05-05 16:47 | 40.03007 | -3.41382 | 33963 ft | 435 kts | 359° |
| 2026-05-05 16:48 | 40.08953 | -3.40207 | 33955 ft | 435 kts | 359° |
| 2026-05-05 16:48 | 40.14939 | -3.39016 | 33959 ft | 435 kts | 359° |
| 2026-05-05 16:49 | 40.20925 | -3.37815 | 34000 ft | 436 kts | 359° |
| 2026-05-05 16:49 | 40.26918 | -3.36597 | 33979 ft | 436 kts | 359° |
| 2026-05-05 16:50 | 40.32909 | -3.35376 | 33971 ft | 435 kts | 359° |
| 2026-05-05 16:50 | 40.38894 | -3.34166 | 33965 ft | 435 kts | 359° |
| 2026-05-05 16:51 | 40.44878 | -3.32954 | 33974 ft | 435 kts | 360° |
| 2026-05-05 16:51 | 40.50812 | -3.31743 | 33943 ft | 434 kts | 360° |
| 2026-05-05 16:52 | 40.56788 | -3.30523 | 33941 ft | 434 kts | 360° |
| 2026-05-05 16:52 | 40.62755 | -3.29309 | 33943 ft | 434 kts | 360° |
| 2026-05-05 16:53 | 40.68738 | -3.28083 | 33957 ft | 435 kts | 360° |
| 2026-05-05 16:53 | 40.74714 | -3.26854 | 33965 ft | 435 kts | 360° |